sensor_id;sensor_type;location;lat;lon;timestamp;temperature;humidity
72355;SHT30;60314;55.040;73.076;2022-07-29T00:01:26;17.90;95.59
72355;SHT30;60314;55.040;73.076;2022-07-29T00:03:53;17.92;95.64
72355;SHT30;60314;55.040;73.076;2022-07-29T00:06:20;17.93;95.68
72355;SHT30;60314;55.040;73.076;2022-07-29T00:08:47;17.96;95.67
72355;SHT30;60314;55.040;73.076;2022-07-29T00:11:13;17.96;95.69
72355;SHT30;60314;55.040;73.076;2022-07-29T00:13:47;17.99;95.71
72355;SHT30;60314;55.040;73.076;2022-07-29T00:16:13;17.97;95.36
72355;SHT30;60314;55.040;73.076;2022-07-29T00:18:41;17.99;95.43
72355;SHT30;60314;55.040;73.076;2022-07-29T00:21:08;17.99;95.35
72355;SHT30;60314;55.040;73.076;2022-07-29T00:23:45;18.00;95.42
72355;SHT30;60314;55.040;73.076;2022-07-29T00:26:11;18.02;95.34
72355;SHT30;60314;55.040;73.076;2022-07-29T00:28:48;18.02;95.36
72355;SHT30;60314;55.040;73.076;2022-07-29T00:31:14;18.05;95.44
72355;SHT30;60314;55.040;73.076;2022-07-29T00:33:41;18.02;95.21
72355;SHT30;60314;55.040;73.076;2022-07-29T00:36:07;18.02;95.11
72355;SHT30;60314;55.040;73.076;2022-07-29T00:38:34;18.03;95.10
72355;SHT30;60314;55.040;73.076;2022-07-29T00:41:00;18.06;95.31
72355;SHT30;60314;55.040;73.076;2022-07-29T00:43:27;18.10;95.30
72355;SHT30;60314;55.040;73.076;2022-07-29T00:45:53;18.09;95.18
72355;SHT30;60314;55.040;73.076;2022-07-29T00:48:38;18.12;95.18
72355;SHT30;60314;55.040;73.076;2022-07-29T00:51:06;18.16;94.76
72355;SHT30;60314;55.040;73.076;2022-07-29T00:53:34;18.16;94.64
72355;SHT30;60314;55.040;73.076;2022-07-29T00:56:01;18.20;94.68
72355;SHT30;60314;55.040;73.076;2022-07-29T00:58:28;18.22;94.40
72355;SHT30;60314;55.040;73.076;2022-07-29T01:00:54;18.22;94.42
72355;SHT30;60314;55.040;73.076;2022-07-29T01:03:21;18.26;94.10
72355;SHT30;60314;55.040;73.076;2022-07-29T01:05:47;18.26;94.00
72355;SHT30;60314;55.040;73.076;2022-07-29T01:08:15;18.29;94.05
72355;SHT30;60314;55.040;73.076;2022-07-29T01:10:49;18.33;93.78
72355;SHT30;60314;55.040;73.076;2022-07-29T01:13:17;18.36;93.77
72355;SHT30;60314;55.040;73.076;2022-07-29T01:15:47;18.32;93.75
72355;SHT30;60314;55.040;73.076;2022-07-29T01:18:24;18.29;93.09
72355;SHT30;60314;55.040;73.076;2022-07-29T01:29:58;18.23;93.35
72355;SHT30;60314;55.040;73.076;2022-07-29T01:32:28;18.18;93.47
72355;SHT30;60314;55.040;73.076;2022-07-29T01:35:17;18.20;93.27
72355;SHT30;60314;55.040;73.076;2022-07-29T01:40:36;18.23;93.30
72355;SHT30;60314;55.040;73.076;2022-07-29T01:43:17;18.29;93.25
72355;SHT30;60314;55.040;73.076;2022-07-29T01:45:53;18.27;93.24
72355;SHT30;60314;55.040;73.076;2022-07-29T01:51:15;18.32;93.07
72355;SHT30;60314;55.040;73.076;2022-07-29T01:54:04;18.27;93.04
72355;SHT30;60314;55.040;73.076;2022-07-29T01:56:32;18.32;92.76
72355;SHT30;60314;55.040;73.076;2022-07-29T01:59:07;18.27;92.99
72355;SHT30;60314;55.040;73.076;2022-07-29T02:01:34;18.29;92.63
72355;SHT30;60314;55.040;73.076;2022-07-29T02:04:06;18.29;92.86
72355;SHT30;60314;55.040;73.076;2022-07-29T02:06:36;18.27;92.86
72355;SHT30;60314;55.040;73.076;2022-07-29T02:09:04;18.30;93.15
72355;SHT30;60314;55.040;73.076;2022-07-29T02:11:33;18.27;93.26
72355;SHT30;60314;55.040;73.076;2022-07-29T02:14:00;18.26;93.28
72355;SHT30;60314;55.040;73.076;2022-07-29T02:16:34;18.22;93.19
72355;SHT30;60314;55.040;73.076;2022-07-29T02:19:04;18.23;93.08
72355;SHT30;60314;55.040;73.076;2022-07-29T02:21:35;18.29;93.04
72355;SHT30;60314;55.040;73.076;2022-07-29T02:24:02;18.25;93.12
72355;SHT30;60314;55.040;73.076;2022-07-29T02:26:41;18.25;92.96
72355;SHT30;60314;55.040;73.076;2022-07-29T02:29:14;18.25;93.26
72355;SHT30;60314;55.040;73.076;2022-07-29T02:31:49;18.23;93.55
72355;SHT30;60314;55.040;73.076;2022-07-29T02:34:17;18.22;93.73
72355;SHT30;60314;55.040;73.076;2022-07-29T02:36:47;18.20;93.60
72355;SHT30;60314;55.040;73.076;2022-07-29T02:39:15;18.23;93.79
72355;SHT30;60314;55.040;73.076;2022-07-29T02:41:47;18.23;93.86
72355;SHT30;60314;55.040;73.076;2022-07-29T02:44:16;18.22;93.99
72355;SHT30;60314;55.040;73.076;2022-07-29T02:54:58;18.34;93.84
72355;SHT30;60314;55.040;73.076;2022-07-29T02:57:33;18.34;93.86
72355;SHT30;60314;55.040;73.076;2022-07-29T03:00:07;18.34;94.22
72355;SHT30;60314;55.040;73.076;2022-07-29T03:02:40;18.36;93.82
72355;SHT30;60314;55.040;73.076;2022-07-29T03:05:12;18.36;93.99
72355;SHT30;60314;55.040;73.076;2022-07-29T03:07:43;18.36;93.85
72355;SHT30;60314;55.040;73.076;2022-07-29T03:10:12;18.40;93.74
72355;SHT30;60314;55.040;73.076;2022-07-29T03:12:40;18.46;93.69
72355;SHT30;60314;55.040;73.076;2022-07-29T03:15:07;18.47;93.47
72355;SHT30;60314;55.040;73.076;2022-07-29T03:17:34;18.47;93.48
72355;SHT30;60314;55.040;73.076;2022-07-29T03:20:02;18.48;93.53
72355;SHT30;60314;55.040;73.076;2022-07-29T03:22:30;18.48;93.43
72355;SHT30;60314;55.040;73.076;2022-07-29T03:24:56;18.47;93.55
72355;SHT30;60314;55.040;73.076;2022-07-29T03:27:23;18.50;93.58
72355;SHT30;60314;55.040;73.076;2022-07-29T03:29:49;18.51;93.45
72355;SHT30;60314;55.040;73.076;2022-07-29T03:32:16;18.50;93.96
72355;SHT30;60314;55.040;73.076;2022-07-29T03:34:42;18.48;93.97
72355;SHT30;60314;55.040;73.076;2022-07-29T03:37:09;18.48;94.11
72355;SHT30;60314;55.040;73.076;2022-07-29T03:39:41;18.46;94.33
72355;SHT30;60314;55.040;73.076;2022-07-29T03:42:11;18.40;94.33
72355;SHT30;60314;55.040;73.076;2022-07-29T03:44:40;18.38;94.40
72355;SHT30;60314;55.040;73.076;2022-07-29T03:47:09;18.37;94.53
72355;SHT30;60314;55.040;73.076;2022-07-29T03:49:37;18.40;94.56
72355;SHT30;60314;55.040;73.076;2022-07-29T03:52:05;18.38;94.47
72355;SHT30;60314;55.040;73.076;2022-07-29T03:54:32;18.33;94.17
72355;SHT30;60314;55.040;73.076;2022-07-29T03:57:01;18.30;94.47
72355;SHT30;60314;55.040;73.076;2022-07-29T03:59:27;18.33;94.45
72355;SHT30;60314;55.040;73.076;2022-07-29T04:01:55;18.33;94.31
72355;SHT30;60314;55.040;73.076;2022-07-29T04:04:24;18.34;94.20
72355;SHT30;60314;55.040;73.076;2022-07-29T04:06:51;18.37;94.15
72355;SHT30;60314;55.040;73.076;2022-07-29T04:09:17;18.38;93.93
72355;SHT30;60314;55.040;73.076;2022-07-29T04:11:45;18.46;94.15
72355;SHT30;60314;55.040;73.076;2022-07-29T04:14:11;18.60;94.70
72355;SHT30;60314;55.040;73.076;2022-07-29T04:16:38;18.69;93.89
72355;SHT30;60314;55.040;73.076;2022-07-29T04:19:04;18.69;93.53
72355;SHT30;60314;55.040;73.076;2022-07-29T04:21:30;18.72;93.19
72355;SHT30;60314;55.040;73.076;2022-07-29T04:23:57;18.74;93.42
72355;SHT30;60314;55.040;73.076;2022-07-29T04:26:23;18.74;93.08
72355;SHT30;60314;55.040;73.076;2022-07-29T04:28:50;18.69;93.18
72355;SHT30;60314;55.040;73.076;2022-07-29T04:31:16;18.67;93.46
72355;SHT30;60314;55.040;73.076;2022-07-29T04:33:43;18.63;93.25
72355;SHT30;60314;55.040;73.076;2022-07-29T04:36:15;18.61;93.52
72355;SHT30;60314;55.040;73.076;2022-07-29T04:38:41;18.57;92.94
72355;SHT30;60314;55.040;73.076;2022-07-29T04:41:08;18.50;93.66
72355;SHT30;60314;55.040;73.076;2022-07-29T04:43:35;18.44;93.69
72355;SHT30;60314;55.040;73.076;2022-07-29T04:46:03;18.47;93.92
72355;SHT30;60314;55.040;73.076;2022-07-29T04:48:30;18.43;93.64
72355;SHT30;60314;55.040;73.076;2022-07-29T04:50:56;18.38;94.04
72355;SHT30;60314;55.040;73.076;2022-07-29T04:53:23;18.34;94.54
72355;SHT30;60314;55.040;73.076;2022-07-29T04:55:50;18.36;94.67
72355;SHT30;60314;55.040;73.076;2022-07-29T04:58:16;18.37;94.72
72355;SHT30;60314;55.040;73.076;2022-07-29T05:00:43;18.46;94.82
72355;SHT30;60314;55.040;73.076;2022-07-29T05:03:09;18.74;95.13
72355;SHT30;60314;55.040;73.076;2022-07-29T05:05:36;18.98;94.53
72355;SHT30;60314;55.040;73.076;2022-07-29T05:08:03;19.22;94.39
72355;SHT30;60314;55.040;73.076;2022-07-29T05:10:30;19.55;95.45
72355;SHT30;60314;55.040;73.076;2022-07-29T05:12:56;19.76;94.42
72355;SHT30;60314;55.040;73.076;2022-07-29T05:15:23;19.76;93.30
72355;SHT30;60314;55.040;73.076;2022-07-29T05:18:00;19.74;91.76
72355;SHT30;60314;55.040;73.076;2022-07-29T05:20:27;19.69;92.50
72355;SHT30;60314;55.040;73.076;2022-07-29T05:22:57;19.67;92.48
72355;SHT30;60314;55.040;73.076;2022-07-29T05:25:25;19.69;92.76
72355;SHT30;60314;55.040;73.076;2022-07-29T05:27:52;19.63;92.23
72355;SHT30;60314;55.040;73.076;2022-07-29T05:30:19;19.66;91.90
72355;SHT30;60314;55.040;73.076;2022-07-29T05:32:45;19.67;92.55
72355;SHT30;60314;55.040;73.076;2022-07-29T05:35:13;19.66;92.52
72355;SHT30;60314;55.040;73.076;2022-07-29T05:37:40;19.69;92.53
72355;SHT30;60314;55.040;73.076;2022-07-29T05:40:07;19.67;91.90
72355;SHT30;60314;55.040;73.076;2022-07-29T05:42:34;19.67;91.93
72355;SHT30;60314;55.040;73.076;2022-07-29T05:45:02;19.66;91.87
72355;SHT30;60314;55.040;73.076;2022-07-29T05:47:35;19.66;91.36
72355;SHT30;60314;55.040;73.076;2022-07-29T05:50:02;19.76;92.25
72355;SHT30;60314;55.040;73.076;2022-07-29T05:52:40;19.90;91.59
72355;SHT30;60314;55.040;73.076;2022-07-29T05:55:07;19.96;91.93
72355;SHT30;60314;55.040;73.076;2022-07-29T05:57:33;20.06;91.87
72355;SHT30;60314;55.040;73.076;2022-07-29T06:00:00;20.20;91.16
72355;SHT30;60314;55.040;73.076;2022-07-29T06:02:26;20.22;89.79
72355;SHT30;60314;55.040;73.076;2022-07-29T06:04:53;20.18;89.66
72355;SHT30;60314;55.040;73.076;2022-07-29T06:07:19;20.14;90.17
72355;SHT30;60314;55.040;73.076;2022-07-29T06:09:46;20.21;91.13
72355;SHT30;60314;55.040;73.076;2022-07-29T06:12:12;20.25;89.45
72355;SHT30;60314;55.040;73.076;2022-07-29T06:14:39;20.31;89.84
72355;SHT30;60314;55.040;73.076;2022-07-29T06:17:10;20.37;88.43
72355;SHT30;60314;55.040;73.076;2022-07-29T06:19:48;20.38;87.34
72355;SHT30;60314;55.040;73.076;2022-07-29T06:22:15;20.42;89.25
72355;SHT30;60314;55.040;73.076;2022-07-29T06:24:43;20.53;88.09
72355;SHT30;60314;55.040;73.076;2022-07-29T06:27:14;20.69;88.13
72355;SHT30;60314;55.040;73.076;2022-07-29T06:29:52;20.85;87.41
72355;SHT30;60314;55.040;73.076;2022-07-29T06:32:28;21.00;86.16
72355;SHT30;60314;55.040;73.076;2022-07-29T06:34:59;21.13;86.49
72355;SHT30;60314;55.040;73.076;2022-07-29T06:37:30;21.24;86.06
72355;SHT30;60314;55.040;73.076;2022-07-29T06:39:56;21.27;85.48
72355;SHT30;60314;55.040;73.076;2022-07-29T06:42:46;21.47;86.14
72355;SHT30;60314;55.040;73.076;2022-07-29T06:45:13;21.57;85.60
72355;SHT30;60314;55.040;73.076;2022-07-29T06:47:42;21.71;85.11
72355;SHT30;60314;55.040;73.076;2022-07-29T06:50:09;21.90;85.49
72355;SHT30;60314;55.040;73.076;2022-07-29T06:52:43;21.98;84.48
72355;SHT30;60314;55.040;73.076;2022-07-29T06:55:10;21.98;84.96
72355;SHT30;60314;55.040;73.076;2022-07-29T06:57:47;21.91;82.98
72355;SHT30;60314;55.040;73.076;2022-07-29T07:00:14;21.87;84.70
72355;SHT30;60314;55.040;73.076;2022-07-29T07:02:50;21.82;84.03
72355;SHT30;60314;55.040;73.076;2022-07-29T07:05:17;21.95;82.89
72355;SHT30;60314;55.040;73.076;2022-07-29T07:07:44;22.08;83.42
72355;SHT30;60314;55.040;73.076;2022-07-29T07:10:16;22.21;84.22
72355;SHT30;60314;55.040;73.076;2022-07-29T07:12:52;22.33;83.77
72355;SHT30;60314;55.040;73.076;2022-07-29T07:15:28;22.43;83.75
72355;SHT30;60314;55.040;73.076;2022-07-29T07:17:55;22.66;83.19
72355;SHT30;60314;55.040;73.076;2022-07-29T07:20:26;22.70;82.56
72355;SHT30;60314;55.040;73.076;2022-07-29T07:22:53;22.77;81.39
72355;SHT30;60314;55.040;73.076;2022-07-29T07:25:19;22.84;82.70
72355;SHT30;60314;55.040;73.076;2022-07-29T07:27:51;23.01;81.15
72355;SHT30;60314;55.040;73.076;2022-07-29T07:30:17;23.04;81.59
72355;SHT30;60314;55.040;73.076;2022-07-29T07:32:47;23.04;80.56
72355;SHT30;60314;55.040;73.076;2022-07-29T07:35:24;23.07;81.28
72355;SHT30;60314;55.040;73.076;2022-07-29T07:38:01;23.18;81.93
72355;SHT30;60314;55.040;73.076;2022-07-29T07:40:27;23.27;80.84
72355;SHT30;60314;55.040;73.076;2022-07-29T07:42:55;23.24;80.97
72355;SHT30;60314;55.040;73.076;2022-07-29T07:45:22;23.28;79.61
72355;SHT30;60314;55.040;73.076;2022-07-29T07:47:49;23.28;80.95
72355;SHT30;60314;55.040;73.076;2022-07-29T07:50:26;23.42;79.72
72355;SHT30;60314;55.040;73.076;2022-07-29T07:52:54;23.58;78.90
72355;SHT30;60314;55.040;73.076;2022-07-29T07:55:23;23.62;79.73
72355;SHT30;60314;55.040;73.076;2022-07-29T07:57:50;23.76;78.85
72355;SHT30;60314;55.040;73.076;2022-07-29T08:00:17;23.69;78.61
72355;SHT30;60314;55.040;73.076;2022-07-29T08:02:43;23.83;78.81
72355;SHT30;60314;55.040;73.076;2022-07-29T08:05:12;24.02;78.66
72355;SHT30;60314;55.040;73.076;2022-07-29T08:07:44;24.17;77.54
72355;SHT30;60314;55.040;73.076;2022-07-29T08:10:11;24.23;77.32
72355;SHT30;60314;55.040;73.076;2022-07-29T08:12:38;24.37;76.02
72355;SHT30;60314;55.040;73.076;2022-07-29T08:15:14;24.37;75.90
72355;SHT30;60314;55.040;73.076;2022-07-29T08:17:45;24.39;76.18
72355;SHT30;60314;55.040;73.076;2022-07-29T08:20:12;24.61;76.11
72355;SHT30;60314;55.040;73.076;2022-07-29T08:22:38;24.70;74.23
72355;SHT30;60314;55.040;73.076;2022-07-29T08:25:10;24.60;73.99
72355;SHT30;60314;55.040;73.076;2022-07-29T08:27:36;24.53;75.14
72355;SHT30;60314;55.040;73.076;2022-07-29T08:30:03;24.63;73.48
72355;SHT30;60314;55.040;73.076;2022-07-29T08:32:29;24.68;72.64
72355;SHT30;60314;55.040;73.076;2022-07-29T08:34:57;24.64;71.88
72355;SHT30;60314;55.040;73.076;2022-07-29T08:37:23;24.60;72.67
72355;SHT30;60314;55.040;73.076;2022-07-29T08:39:50;24.60;72.23
72355;SHT30;60314;55.040;73.076;2022-07-29T08:42:16;24.65;72.48
72355;SHT30;60314;55.040;73.076;2022-07-29T08:44:43;24.68;70.68
72355;SHT30;60314;55.040;73.076;2022-07-29T08:47:10;24.77;71.48
72355;SHT30;60314;55.040;73.076;2022-07-29T08:49:40;24.87;71.04
72355;SHT30;60314;55.040;73.076;2022-07-29T08:52:12;25.11;68.95
72355;SHT30;60314;55.040;73.076;2022-07-29T08:54:43;25.15;69.35
72355;SHT30;60314;55.040;73.076;2022-07-29T08:57:12;25.10;67.86
72355;SHT30;60314;55.040;73.076;2022-07-29T08:59:46;25.01;69.04
72355;SHT30;60314;55.040;73.076;2022-07-29T09:02:19;25.11;69.79
72355;SHT30;60314;55.040;73.076;2022-07-29T09:04:46;25.19;69.29
72355;SHT30;60314;55.040;73.076;2022-07-29T09:07:18;25.45;68.67
72355;SHT30;60314;55.040;73.076;2022-07-29T09:09:45;25.65;66.32
72355;SHT30;60314;55.040;73.076;2022-07-29T09:12:11;25.77;66.11
72355;SHT30;60314;55.040;73.076;2022-07-29T09:14:39;25.77;65.80
72355;SHT30;60314;55.040;73.076;2022-07-29T09:17:06;25.74;66.86
72355;SHT30;60314;55.040;73.076;2022-07-29T09:19:39;25.84;66.01
72355;SHT30;60314;55.040;73.076;2022-07-29T09:22:06;25.62;65.88
72355;SHT30;60314;55.040;73.076;2022-07-29T09:24:37;25.55;67.54
72355;SHT30;60314;55.040;73.076;2022-07-29T09:27:21;25.80;66.48
72355;SHT30;60314;55.040;73.076;2022-07-29T09:32:26;25.89;64.68
72355;SHT30;60314;55.040;73.076;2022-07-29T09:35:16;25.74;65.92
72355;SHT30;60314;55.040;73.076;2022-07-29T09:37:43;25.56;66.12
72355;SHT30;60314;55.040;73.076;2022-07-29T09:40:14;25.35;66.42
72355;SHT30;60314;55.040;73.076;2022-07-29T09:42:42;25.22;66.59
72355;SHT30;60314;55.040;73.076;2022-07-29T09:45:09;25.14;68.09
72355;SHT30;60314;55.040;73.076;2022-07-29T09:47:47;25.05;68.51
72355;SHT30;60314;55.040;73.076;2022-07-29T09:50:15;25.05;69.18
72355;SHT30;60314;55.040;73.076;2022-07-29T09:52:49;25.05;69.72
72355;SHT30;60314;55.040;73.076;2022-07-29T09:55:17;25.11;68.74
72355;SHT30;60314;55.040;73.076;2022-07-29T09:57:44;25.18;68.12
72355;SHT30;60314;55.040;73.076;2022-07-29T10:00:16;25.22;67.89
72355;SHT30;60314;55.040;73.076;2022-07-29T10:02:45;25.22;68.08
72355;SHT30;60314;55.040;73.076;2022-07-29T10:05:26;25.14;67.21
72355;SHT30;60314;55.040;73.076;2022-07-29T10:07:56;25.12;67.35
72355;SHT30;60314;55.040;73.076;2022-07-29T10:13:00;25.10;66.93
72355;SHT30;60314;55.040;73.076;2022-07-29T10:15:34;25.16;68.44
72355;SHT30;60314;55.040;73.076;2022-07-29T10:18:06;25.36;67.16
72355;SHT30;60314;55.040;73.076;2022-07-29T10:20:33;25.52;67.16
72355;SHT30;60314;55.040;73.076;2022-07-29T10:23:00;25.70;68.30
72355;SHT30;60314;55.040;73.076;2022-07-29T10:25:26;25.74;67.20
72355;SHT30;60314;55.040;73.076;2022-07-29T10:27:55;25.70;67.69
72355;SHT30;60314;55.040;73.076;2022-07-29T10:30:23;25.62;67.43
72355;SHT30;60314;55.040;73.076;2022-07-29T10:33:13;25.61;67.76
72355;SHT30;60314;55.040;73.076;2022-07-29T10:36:07;25.73;67.34
72355;SHT30;60314;55.040;73.076;2022-07-29T10:44:46;26.00;66.51
72355;SHT30;60314;55.040;73.076;2022-07-29T10:47:21;25.80;66.97
72355;SHT30;60314;55.040;73.076;2022-07-29T10:50:05;25.61;67.02
72355;SHT30;60314;55.040;73.076;2022-07-29T10:53:02;25.38;67.24
72355;SHT30;60314;55.040;73.076;2022-07-29T10:58:17;25.08;66.99
72355;SHT30;60314;55.040;73.076;2022-07-29T11:00:47;25.18;68.45
72355;SHT30;60314;55.040;73.076;2022-07-29T11:03:48;25.38;68.01
72355;SHT30;60314;55.040;73.076;2022-07-29T11:06:18;25.42;67.72
72355;SHT30;60314;55.040;73.076;2022-07-29T11:08:44;25.49;67.56
72355;SHT30;60314;55.040;73.076;2022-07-29T11:13:56;25.53;66.90
72355;SHT30;60314;55.040;73.076;2022-07-29T11:16:23;25.49;66.37
72355;SHT30;60314;55.040;73.076;2022-07-29T11:19:22;25.46;66.83
72355;SHT30;60314;55.040;73.076;2022-07-29T11:21:49;25.46;67.08
72355;SHT30;60314;55.040;73.076;2022-07-29T11:24:18;25.35;66.43
72355;SHT30;60314;55.040;73.076;2022-07-29T11:29:53;25.38;66.96
72355;SHT30;60314;55.040;73.076;2022-07-29T11:32:21;25.45;67.95
72355;SHT30;60314;55.040;73.076;2022-07-29T11:34:48;25.42;68.25
72355;SHT30;60314;55.040;73.076;2022-07-29T11:37:17;25.46;67.23
72355;SHT30;60314;55.040;73.076;2022-07-29T11:39:47;25.43;66.18
72355;SHT30;60314;55.040;73.076;2022-07-29T11:47:26;24.95;66.74
72355;SHT30;60314;55.040;73.076;2022-07-29T11:50:05;24.92;66.23
72355;SHT30;60314;55.040;73.076;2022-07-29T11:52:37;25.04;66.45
72355;SHT30;60314;55.040;73.076;2022-07-29T11:55:28;25.14;67.21
72355;SHT30;60314;55.040;73.076;2022-07-29T11:58:14;25.15;66.88
72355;SHT30;60314;55.040;73.076;2022-07-29T12:00:41;25.16;67.10
72355;SHT30;60314;55.040;73.076;2022-07-29T12:03:10;25.21;67.26
72355;SHT30;60314;55.040;73.076;2022-07-29T12:05:41;25.22;65.14
72355;SHT30;60314;55.040;73.076;2022-07-29T12:08:19;25.28;65.65
72355;SHT30;60314;55.040;73.076;2022-07-29T12:10:51;25.24;65.19
72355;SHT30;60314;55.040;73.076;2022-07-29T12:13:20;25.28;65.96
72355;SHT30;60314;55.040;73.076;2022-07-29T12:15:54;25.36;64.89
72355;SHT30;60314;55.040;73.076;2022-07-29T12:18:30;25.41;64.03
72355;SHT30;60314;55.040;73.076;2022-07-29T12:21:01;25.29;64.25
72355;SHT30;60314;55.040;73.076;2022-07-29T12:23:34;25.12;64.17
72355;SHT30;60314;55.040;73.076;2022-07-29T12:26:19;25.02;65.32
72355;SHT30;60314;55.040;73.076;2022-07-29T12:28:45;24.99;64.95
72355;SHT30;60314;55.040;73.076;2022-07-29T12:31:16;24.94;64.76
72355;SHT30;60314;55.040;73.076;2022-07-29T12:33:43;25.01;65.26
72355;SHT30;60314;55.040;73.076;2022-07-29T12:36:18;24.95;63.91
72355;SHT30;60314;55.040;73.076;2022-07-29T12:38:45;24.87;64.40
72355;SHT30;60314;55.040;73.076;2022-07-29T12:41:12;24.75;64.51
72355;SHT30;60314;55.040;73.076;2022-07-29T12:43:53;24.75;65.14
72355;SHT30;60314;55.040;73.076;2022-07-29T12:46:20;24.77;64.66
72355;SHT30;60314;55.040;73.076;2022-07-29T12:49:05;24.73;64.72
72355;SHT30;60314;55.040;73.076;2022-07-29T12:51:35;24.74;65.11
72355;SHT30;60314;55.040;73.076;2022-07-29T12:54:10;24.68;65.17
72355;SHT30;60314;55.040;73.076;2022-07-29T12:56:38;24.56;65.22
72355;SHT30;60314;55.040;73.076;2022-07-29T12:59:19;24.46;63.91
72355;SHT30;60314;55.040;73.076;2022-07-29T13:01:48;24.41;64.31
72355;SHT30;60314;55.040;73.076;2022-07-29T13:04:33;24.39;63.81
72355;SHT30;60314;55.040;73.076;2022-07-29T13:07:07;24.34;64.32
72355;SHT30;60314;55.040;73.076;2022-07-29T13:09:39;24.29;64.50
72355;SHT30;60314;55.040;73.076;2022-07-29T13:12:07;24.33;65.16
72355;SHT30;60314;55.040;73.076;2022-07-29T13:14:46;24.32;64.76
72355;SHT30;60314;55.040;73.076;2022-07-29T13:17:15;24.30;66.01
72355;SHT30;60314;55.040;73.076;2022-07-29T13:19:50;24.32;65.92
72355;SHT30;60314;55.040;73.076;2022-07-29T13:22:19;24.32;66.25
72355;SHT30;60314;55.040;73.076;2022-07-29T13:24:47;24.27;64.65
72355;SHT30;60314;55.040;73.076;2022-07-29T13:27:15;24.19;64.61
72355;SHT30;60314;55.040;73.076;2022-07-29T13:29:42;24.13;65.68
72355;SHT30;60314;55.040;73.076;2022-07-29T13:32:08;24.06;65.01
72355;SHT30;60314;55.040;73.076;2022-07-29T13:34:35;24.01;64.92
72355;SHT30;60314;55.040;73.076;2022-07-29T13:37:02;23.90;65.38
72355;SHT30;60314;55.040;73.076;2022-07-29T13:39:32;23.88;66.13
72355;SHT30;60314;55.040;73.076;2022-07-29T13:41:59;23.85;65.27
72355;SHT30;60314;55.040;73.076;2022-07-29T13:44:30;23.79;64.39
72355;SHT30;60314;55.040;73.076;2022-07-29T13:46:56;23.73;63.93
72355;SHT30;60314;55.040;73.076;2022-07-29T13:49:25;23.71;64.59
72355;SHT30;60314;55.040;73.076;2022-07-29T13:51:52;23.71;64.09
72355;SHT30;60314;55.040;73.076;2022-07-29T13:54:19;23.65;63.72
72355;SHT30;60314;55.040;73.076;2022-07-29T13:56:45;23.61;63.78
72355;SHT30;60314;55.040;73.076;2022-07-29T13:59:12;23.55;64.10
72355;SHT30;60314;55.040;73.076;2022-07-29T14:01:45;23.48;64.10
72355;SHT30;60314;55.040;73.076;2022-07-29T14:04:13;23.41;64.03
72355;SHT30;60314;55.040;73.076;2022-07-29T14:06:42;23.38;64.73
72355;SHT30;60314;55.040;73.076;2022-07-29T14:09:08;23.35;65.18
72355;SHT30;60314;55.040;73.076;2022-07-29T14:11:40;23.28;65.48
72355;SHT30;60314;55.040;73.076;2022-07-29T14:14:17;23.23;65.79
72355;SHT30;60314;55.040;73.076;2022-07-29T14:16:43;23.18;65.78
72355;SHT30;60314;55.040;73.076;2022-07-29T14:19:10;23.15;66.21
72355;SHT30;60314;55.040;73.076;2022-07-29T14:21:37;23.20;66.35
72355;SHT30;60314;55.040;73.076;2022-07-29T14:24:14;23.13;66.25
72355;SHT30;60314;55.040;73.076;2022-07-29T14:26:40;23.06;66.12
72355;SHT30;60314;55.040;73.076;2022-07-29T14:29:07;23.04;66.42
72355;SHT30;60314;55.040;73.076;2022-07-29T14:31:33;23.01;66.46
72355;SHT30;60314;55.040;73.076;2022-07-29T14:33:59;22.94;65.37
72355;SHT30;60314;55.040;73.076;2022-07-29T14:36:26;22.90;65.97
72355;SHT30;60314;55.040;73.076;2022-07-29T14:38:53;22.79;66.82
72355;SHT30;60314;55.040;73.076;2022-07-29T14:41:19;22.74;67.30
72355;SHT30;60314;55.040;73.076;2022-07-29T14:43:53;22.66;67.93
72355;SHT30;60314;55.040;73.076;2022-07-29T14:46:19;22.59;67.66
72355;SHT30;60314;55.040;73.076;2022-07-29T14:48:46;22.50;68.17
72355;SHT30;60314;55.040;73.076;2022-07-29T14:51:22;22.42;68.03
72355;SHT30;60314;55.040;73.076;2022-07-29T14:53:49;22.35;68.03
72355;SHT30;60314;55.040;73.076;2022-07-29T14:56:25;22.26;68.13
72355;SHT30;60314;55.040;73.076;2022-07-29T14:58:53;22.22;68.04
72355;SHT30;60314;55.040;73.076;2022-07-29T15:01:19;22.16;67.68
72355;SHT30;60314;55.040;73.076;2022-07-29T15:03:46;22.06;68.08
72355;SHT30;60314;55.040;73.076;2022-07-29T15:06:40;22.01;68.35
72355;SHT30;60314;55.040;73.076;2022-07-29T15:09:07;21.91;68.74
72355;SHT30;60314;55.040;73.076;2022-07-29T15:11:33;21.90;68.59
72355;SHT30;60314;55.040;73.076;2022-07-29T15:14:00;21.84;68.78
72355;SHT30;60314;55.040;73.076;2022-07-29T15:16:26;21.78;68.65
72355;SHT30;60314;55.040;73.076;2022-07-29T15:18:53;21.74;68.70
72355;SHT30;60314;55.040;73.076;2022-07-29T15:21:19;21.70;68.54
72355;SHT30;60314;55.040;73.076;2022-07-29T15:23:46;21.65;68.35
72355;SHT30;60314;55.040;73.076;2022-07-29T15:26:12;21.58;68.31
72355;SHT30;60314;55.040;73.076;2022-07-29T15:28:38;21.54;68.33
72355;SHT30;60314;55.040;73.076;2022-07-29T15:31:06;21.50;68.37
72355;SHT30;60314;55.040;73.076;2022-07-29T15:36:29;21.36;68.69
72355;SHT30;60314;55.040;73.076;2022-07-29T15:38:55;21.31;68.98
72355;SHT30;60314;55.040;73.076;2022-07-29T15:41:22;21.19;69.08
72355;SHT30;60314;55.040;73.076;2022-07-29T15:43:51;21.11;69.76
72355;SHT30;60314;55.040;73.076;2022-07-29T15:46:19;21.06;69.75
72355;SHT30;60314;55.040;73.076;2022-07-29T15:49:13;20.99;70.34
72355;SHT30;60314;55.040;73.076;2022-07-29T15:51:40;20.83;70.42
72355;SHT30;60314;55.040;73.076;2022-07-29T15:54:07;20.83;70.23
72355;SHT30;60314;55.040;73.076;2022-07-29T15:56:43;20.75;70.49
72355;SHT30;60314;55.040;73.076;2022-07-29T15:59:15;20.67;70.15
72355;SHT30;60314;55.040;73.076;2022-07-29T16:01:41;20.58;70.34
72355;SHT30;60314;55.040;73.076;2022-07-29T16:04:08;20.52;70.58
72355;SHT30;60314;55.040;73.076;2022-07-29T16:06:34;20.41;70.54
72355;SHT30;60314;55.040;73.076;2022-07-29T16:09:01;20.34;70.73
72355;SHT30;60314;55.040;73.076;2022-07-29T16:11:28;20.22;70.77
72355;SHT30;60314;55.040;73.076;2022-07-29T16:13:54;20.18;70.42
72355;SHT30;60314;55.040;73.076;2022-07-29T16:16:21;20.07;69.96
72355;SHT30;60314;55.040;73.076;2022-07-29T16:18:47;20.03;70.17
72355;SHT30;60314;55.040;73.076;2022-07-29T16:21:14;19.91;70.09
72355;SHT30;60314;55.040;73.076;2022-07-29T16:23:40;19.86;70.36